sensor_id;sensor_type;location;lat;lon;timestamp;pressure;altitude;pressure_sealevel;temperature;humidity
51460;BME280;37534;39.772;2.718;2023-12-07T00:02:10;101735.13;;;6.17;100.00
51460;BME280;37534;39.772;2.718;2023-12-07T00:04:37;101750.59;;;6.26;100.00
51460;BME280;37534;39.772;2.718;2023-12-07T00:07:03;101750.56;;;6.23;100.00
51460;BME280;37534;39.772;2.718;2023-12-07T00:09:28;101763.28;;;6.14;100.00
51460;BME280;37534;39.772;2.718;2023-12-07T00:11:54;101762.34;;;6.03;100.00
51460;BME280;37534;39.772;2.718;2023-12-07T00:14:19;101753.69;;;5.95;100.00
51460;BME280;37534;39.772;2.718;2023-12-07T00:16:45;101762.22;;;5.94;100.00
51460;BME280;37534;39.772;2.718;2023-12-07T00:19:10;101777.69;;;6.00;100.00
51460;BME280;37534;39.772;2.718;2023-12-07T00:21:36;101772.56;;;6.00;100.00
51460;BME280;37534;39.772;2.718;2023-12-07T00:24:01;101769.19;;;6.02;100.00
51460;BME280;37534;39.772;2.718;2023-12-07T00:26:26;101772.72;;;6.15;100.00
51460;BME280;37534;39.772;2.718;2023-12-07T00:28:52;101765.06;;;6.21;100.00
51460;BME280;37534;39.772;2.718;2023-12-07T00:31:17;101741.06;;;6.10;100.00
51460;BME280;37534;39.772;2.718;2023-12-07T00:33:43;101725.66;;;6.07;100.00
51460;BME280;37534;39.772;2.718;2023-12-07T00:36:10;101741.03;;;6.07;100.00
51460;BME280;37534;39.772;2.718;2023-12-07T00:38:35;101737.63;;;6.11;100.00
51460;BME280;37534;39.772;2.718;2023-12-07T00:41:01;101735.94;;;6.10;100.00
51460;BME280;37534;39.772;2.718;2023-12-07T00:43:27;101737.63;;;6.11;100.00
51460;BME280;37534;39.772;2.718;2023-12-07T00:45:52;101738.56;;;6.18;100.00
51460;BME280;37534;39.772;2.718;2023-12-07T00:48:17;101725.72;;;6.16;100.00
51460;BME280;37534;39.772;2.718;2023-12-07T00:50:43;101720.59;;;6.13;100.00
51460;BME280;37534;39.772;2.718;2023-12-07T00:53:09;101719.72;;;6.13;100.00
51460;BME280;37534;39.772;2.718;2023-12-07T00:55:34;101713.56;;;5.94;100.00
51460;BME280;37534;39.772;2.718;2023-12-07T00:58:00;101716.22;;;6.01;100.00
51460;BME280;37534;39.772;2.718;2023-12-07T01:00:27;101729.16;;;6.15;100.00
51460;BME280;37534;39.772;2.718;2023-12-07T01:02:52;101715.47;;;6.16;100.00
51460;BME280;37534;39.772;2.718;2023-12-07T01:05:18;101721.47;;;6.15;100.00
51460;BME280;37534;39.772;2.718;2023-12-07T01:07:43;101728.97;;;5.98;100.00
51460;BME280;37534;39.772;2.718;2023-12-07T01:10:09;101746.91;;;5.98;100.00
51460;BME280;37534;39.772;2.718;2023-12-07T01:12:34;101732.28;;;5.86;100.00
51460;BME280;37534;39.772;2.718;2023-12-07T01:15:01;101729.66;;;5.82;100.00
51460;BME280;37534;39.772;2.718;2023-12-07T01:17:26;101739.94;;;5.85;100.00
51460;BME280;37534;39.772;2.718;2023-12-07T01:19:52;101737.22;;;5.71;100.00
51460;BME280;37534;39.772;2.718;2023-12-07T01:22:17;101734.59;;;5.63;100.00
51460;BME280;37534;39.772;2.718;2023-12-07T01:24:43;101742.25;;;5.62;100.00
51460;BME280;37534;39.772;2.718;2023-12-07T01:27:09;101744.69;;;5.51;100.00
51460;BME280;37534;39.772;2.718;2023-12-07T01:29:35;101767.84;;;5.62;100.00
51460;BME280;37534;39.772;2.718;2023-12-07T01:32:00;101772.09;;;5.61;100.00
51460;BME280;37534;39.772;2.718;2023-12-07T01:34:26;101766.03;;;5.51;100.00
51460;BME280;37534;39.772;2.718;2023-12-07T01:36:51;101798.88;;;5.86;100.00
51460;BME280;37534;39.772;2.718;2023-12-07T01:39:17;101781.78;;;5.87;100.00
51460;BME280;37534;39.772;2.718;2023-12-07T01:41:42;101791.94;;;5.81;100.00
51460;BME280;37534;39.772;2.718;2023-12-07T01:44:08;101782.41;;;5.66;100.00
51460;BME280;37534;39.772;2.718;2023-12-07T01:46:34;101779.75;;;5.57;100.00
51460;BME280;37534;39.772;2.718;2023-12-07T01:49:00;101791.56;;;5.48;100.00
51460;BME280;37534;39.772;2.718;2023-12-07T01:51:27;101794.28;;;5.61;100.00
51460;BME280;37534;39.772;2.718;2023-12-07T01:53:52;101796.91;;;5.65;100.00
51460;BME280;37534;39.772;2.718;2023-12-07T01:56:19;101793.34;;;5.52;100.00
51460;BME280;37534;39.772;2.718;2023-12-07T01:58:44;101798.59;;;5.63;100.00
51460;BME280;37534;39.772;2.718;2023-12-07T02:01:10;101774.66;;;5.60;100.00
51460;BME280;37534;39.772;2.718;2023-12-07T02:03:41;101786.56;;;5.55;100.00
51460;BME280;37534;39.772;2.718;2023-12-07T02:06:07;101785.69;;;5.52;100.00
51460;BME280;37534;39.772;2.718;2023-12-07T02:08:34;101794.94;;;5.43;100.00
51460;BME280;37534;39.772;2.718;2023-12-07T02:11:00;101786.38;;;5.41;100.00
51460;BME280;37534;39.772;2.718;2023-12-07T02:13:26;101790.69;;;5.45;100.00
51460;BME280;37534;39.772;2.718;2023-12-07T02:15:52;101788.09;;;5.43;100.00
51460;BME280;37534;39.772;2.718;2023-12-07T02:21:07;101778.75;;;5.44;100.00
51460;BME280;37534;39.772;2.718;2023-12-07T02:23:35;101774.44;;;5.41;100.00
51460;BME280;37534;39.772;2.718;2023-12-07T02:26:03;101769.19;;;5.32;100.00
51460;BME280;37534;39.772;2.718;2023-12-07T02:28:30;101752.84;;;5.22;100.00
51460;BME280;37534;39.772;2.718;2023-12-07T02:30:55;101753.84;;;5.32;100.00
51460;BME280;37534;39.772;2.718;2023-12-07T02:33:21;101751.25;;;5.30;100.00
51460;BME280;37534;39.772;2.718;2023-12-07T02:35:47;101752.06;;;5.25;100.00
51460;BME280;37534;39.772;2.718;2023-12-07T02:38:13;101738.44;;;5.26;100.00
51460;BME280;37534;39.772;2.718;2023-12-07T02:40:40;101757.44;;;5.46;100.00
51460;BME280;37534;39.772;2.718;2023-12-07T02:43:07;101750.53;;;5.39;100.00
51460;BME280;37534;39.772;2.718;2023-12-07T02:45:34;101736.78;;;5.29;100.00
51460;BME280;37534;39.772;2.718;2023-12-07T02:48:00;101732.44;;;5.25;100.00
51460;BME280;37534;39.772;2.718;2023-12-07T02:50:25;101750.53;;;5.39;100.00
51460;BME280;37534;39.772;2.718;2023-12-07T02:52:51;101745.47;;;5.47;100.00
51460;BME280;37534;39.772;2.718;2023-12-07T02:55:17;101748.78;;;5.37;100.00
51460;BME280;37534;39.772;2.718;2023-12-07T02:57:42;101745.25;;;5.27;100.00
51460;BME280;37534;39.772;2.718;2023-12-07T03:00:08;101737.50;;;5.22;100.00
51460;BME280;37534;39.772;2.718;2023-12-07T03:02:38;101745.34;;;5.36;100.00
51460;BME280;37534;39.772;2.718;2023-12-07T03:05:04;101732.44;;;5.25;100.00
51460;BME280;37534;39.772;2.718;2023-12-07T03:07:31;101727.28;;;5.21;100.00
51460;BME280;37534;39.772;2.718;2023-12-07T03:09:56;101730.63;;;5.18;100.00
51460;BME280;37534;39.772;2.718;2023-12-07T03:12:22;101719.44;;;5.07;100.00
51460;BME280;37534;39.772;2.718;2023-12-07T03:14:49;101730.44;;;5.03;100.00
51460;BME280;37534;39.772;2.718;2023-12-07T03:17:14;101731.31;;;5.03;100.00
51460;BME280;37534;39.772;2.718;2023-12-07T03:19:40;101743.25;;;5.04;100.00
51460;BME280;37534;39.772;2.718;2023-12-07T03:22:07;101734.66;;;5.01;100.00
51460;BME280;37534;39.772;2.718;2023-12-07T03:24:36;101744.94;;;5.02;100.00
51460;BME280;37534;39.772;2.718;2023-12-07T03:27:01;101732.09;;;4.98;100.00
51460;BME280;37534;39.772;2.718;2023-12-07T03:29:27;101739.75;;;4.99;100.00
51460;BME280;37534;39.772;2.718;2023-12-07T03:31:53;101732.81;;;4.89;100.00
51460;BME280;37534;39.772;2.718;2023-12-07T03:34:18;101740.69;;;5.04;100.00
51460;BME280;37534;39.772;2.718;2023-12-07T03:36:47;101741.44;;;4.97;100.00
51460;BME280;37534;39.772;2.718;2023-12-07T03:39:14;101733.69;;;4.89;100.00
51460;BME280;37534;39.772;2.718;2023-12-07T03:41:39;101733.53;;;4.79;100.00
51460;BME280;37534;39.772;2.718;2023-12-07T03:44:05;101749.03;;;4.91;100.00
51460;BME280;37534;39.772;2.718;2023-12-07T03:46:30;101740.53;;;4.92;100.00
51460;BME280;37534;39.772;2.718;2023-12-07T03:48:56;101745.78;;;5.01;100.00
51460;BME280;37534;39.772;2.718;2023-12-07T03:51:21;101736.53;;;5.11;100.00
51460;BME280;37534;39.772;2.718;2023-12-07T03:53:47;101732.28;;;5.13;100.00
51460;BME280;37534;39.772;2.718;2023-12-07T03:56:26;101726.97;;;4.98;100.00
51460;BME280;37534;39.772;2.718;2023-12-07T03:58:52;101750.03;;;5.02;100.00
51460;BME280;37534;39.772;2.718;2023-12-07T04:01:17;101702.78;;;4.74;100.00
51460;BME280;37534;39.772;2.718;2023-12-07T04:03:43;101751.59;;;4.91;100.00
51460;BME280;37534;39.772;2.718;2023-12-07T04:06:08;101744.75;;;4.87;100.00
51460;BME280;37534;39.772;2.718;2023-12-07T04:08:34;101732.75;;;4.84;100.00
51460;BME280;37534;39.772;2.718;2023-12-07T04:11:00;101744.84;;;4.96;100.00
51460;BME280;37534;39.772;2.718;2023-12-07T04:13:25;101719.81;;;4.73;100.00
51460;BME280;37534;39.772;2.718;2023-12-07T04:15:51;101737.72;;;4.73;100.00
51460;BME280;37534;39.772;2.718;2023-12-07T04:18:17;101752.28;;;4.79;100.00
51460;BME280;37534;39.772;2.718;2023-12-07T04:20:42;101761.59;;;4.75;100.00
51460;BME280;37534;39.772;2.718;2023-12-07T04:23:08;101748.66;;;4.65;100.00
51460;BME280;37534;39.772;2.718;2023-12-07T04:25:33;101772.13;;;4.94;100.00
51460;BME280;37534;39.772;2.718;2023-12-07T04:27:59;101763.34;;;4.80;100.00
51460;BME280;37534;39.772;2.718;2023-12-07T04:30:25;101767.09;;;5.02;100.00
51460;BME280;37534;39.772;2.718;2023-12-07T04:32:50;101756.63;;;4.85;100.00
51460;BME280;37534;39.772;2.718;2023-12-07T04:35:16;101755.16;;;5.02;100.00
51460;BME280;37534;39.772;2.718;2023-12-07T04:37:41;101762.13;;;5.12;100.00
51460;BME280;37534;39.772;2.718;2023-12-07T04:40:07;101768.81;;;5.04;100.00
51460;BME280;37534;39.772;2.718;2023-12-07T04:42:33;101755.75;;;4.84;100.00
51460;BME280;37534;39.772;2.718;2023-12-07T04:44:59;101758.34;;;4.86;100.00
51460;BME280;37534;39.772;2.718;2023-12-07T04:47:24;101766.91;;;4.88;100.00
51460;BME280;37534;39.772;2.718;2023-12-07T04:49:50;101744.72;;;4.85;100.00
51460;BME280;37534;39.772;2.718;2023-12-07T04:52:15;101740.34;;;4.80;100.00
51460;BME280;37534;39.772;2.718;2023-12-07T04:54:40;101740.34;;;4.80;100.00
51460;BME280;37534;39.772;2.718;2023-12-07T04:57:07;101744.75;;;4.90;100.00
51460;BME280;37534;39.772;2.718;2023-12-07T04:59:32;101737.03;;;4.85;100.00
51460;BME280;37534;39.772;2.718;2023-12-07T05:01:58;101746.38;;;4.82;100.00
51460;BME280;37534;39.772;2.718;2023-12-07T05:04:23;101757.44;;;4.82;100.00
51460;BME280;37534;39.772;2.718;2023-12-07T05:06:49;101750.78;;;4.95;100.00
51460;BME280;37534;39.772;2.718;2023-12-07T05:09:14;101738.00;;;4.95;100.00
51460;BME280;37534;39.772;2.718;2023-12-07T05:11:40;101745.03;;;5.08;100.00
51460;BME280;37534;39.772;2.718;2023-12-07T05:14:06;101744.81;;;4.93;100.00
51460;BME280;37534;39.772;2.718;2023-12-07T05:16:32;101730.13;;;4.81;100.00
51460;BME280;37534;39.772;2.718;2023-12-07T05:18:57;101739.53;;;4.82;100.00
51460;BME280;37534;39.772;2.718;2023-12-07T05:21:23;101736.09;;;4.79;100.00
51460;BME280;37534;39.772;2.718;2023-12-07T05:23:48;101739.56;;;4.84;100.00
51460;BME280;37534;39.772;2.718;2023-12-07T05:26:14;101734.34;;;4.74;100.00
51460;BME280;37534;39.772;2.718;2023-12-07T05:28:40;101753.31;;;4.90;100.00
51460;BME280;37534;39.772;2.718;2023-12-07T05:31:05;101745.47;;;4.78;100.00
51460;BME280;37534;39.772;2.718;2023-12-07T05:33:32;101746.38;;;4.83;100.00
51460;BME280;37534;39.772;2.718;2023-12-07T05:35:57;101737.84;;;4.83;100.00
51460;BME280;37534;39.772;2.718;2023-12-07T05:38:23;101753.22;;;4.86;100.00
51460;BME280;37534;39.772;2.718;2023-12-07T05:40:49;101727.75;;;4.90;100.00
51460;BME280;37534;39.772;2.718;2023-12-07T05:43:14;101737.97;;;4.92;100.00
51460;BME280;37534;39.772;2.718;2023-12-07T05:45:40;101748.41;;;5.07;100.00
51460;BME280;37534;39.772;2.718;2023-12-07T05:48:08;101733.78;;;4.97;100.00
51460;BME280;37534;39.772;2.718;2023-12-07T05:50:35;101733.59;;;4.82;100.00
51460;BME280;37534;39.772;2.718;2023-12-07T05:53:05;101731.81;;;4.79;100.00
51460;BME280;37534;39.772;2.718;2023-12-07T05:55:31;101736.13;;;4.82;100.00
51460;BME280;37534;39.772;2.718;2023-12-07T05:57:57;101729.16;;;4.71;100.00
51460;BME280;37534;39.772;2.718;2023-12-07T06:00:22;101742.78;;;4.70;100.00
51460;BME280;37534;39.772;2.718;2023-12-07T06:02:48;101743.66;;;4.71;100.00
51460;BME280;37534;39.772;2.718;2023-12-07T06:05:14;101749.66;;;4.73;100.00
51460;BME280;37534;39.772;2.718;2023-12-07T06:07:40;101753.22;;;4.86;100.00
51460;BME280;37534;39.772;2.718;2023-12-07T06:10:06;101751.56;;;4.88;100.00
51460;BME280;37534;39.772;2.718;2023-12-07T06:12:32;101755.75;;;4.83;100.00
51460;BME280;37534;39.772;2.718;2023-12-07T06:14:58;101726.50;;;4.64;100.00
51460;BME280;37534;39.772;2.718;2023-12-07T06:17:23;101738.72;;;4.83;100.00
51460;BME280;37534;39.772;2.718;2023-12-07T06:19:49;101731.81;;;4.79;100.00
51460;BME280;37534;39.772;2.718;2023-12-07T06:22:14;101735.13;;;4.72;100.00
51460;BME280;37534;39.772;2.718;2023-12-07T06:24:40;101736.88;;;4.73;100.00
51460;BME280;37534;39.772;2.718;2023-12-07T06:27:05;101747.28;;;4.88;100.00
51460;BME280;37534;39.772;2.718;2023-12-07T06:29:33;101727.78;;;4.95;100.00
51460;BME280;37534;39.772;2.718;2023-12-07T06:31:58;101731.16;;;4.91;100.00
51460;BME280;37534;39.772;2.718;2023-12-07T06:34:25;101743.00;;;4.86;100.00
51460;BME280;37534;39.772;2.718;2023-12-07T06:36:51;101745.50;;;4.83;100.00
51460;BME280;37534;39.772;2.718;2023-12-07T06:39:16;101756.63;;;4.85;100.00
51460;BME280;37534;39.772;2.718;2023-12-07T06:41:42;101752.25;;;4.78;100.00
51460;BME280;37534;39.772;2.718;2023-12-07T06:44:08;101745.31;;;4.69;100.00
51460;BME280;37534;39.772;2.718;2023-12-07T06:46:34;101745.44;;;4.76;100.00
51460;BME280;37534;39.772;2.718;2023-12-07T06:49:00;101730.03;;;4.73;100.00
51460;BME280;37534;39.772;2.718;2023-12-07T06:51:26;101742.06;;;4.81;100.00
51460;BME280;37534;39.772;2.718;2023-12-07T06:53:52;101751.31;;;4.72;100.00
51460;BME280;37534;39.772;2.718;2023-12-07T06:56:17;101767.06;;;5.00;100.00
51460;BME280;37534;39.772;2.718;2023-12-07T06:58:43;101770.56;;;5.05;100.00
51460;BME280;37534;39.772;2.718;2023-12-07T07:01:08;101777.47;;;5.12;100.00
51460;BME280;37534;39.772;2.718;2023-12-07T07:03:34;101756.19;;;5.17;100.00
51460;BME280;37534;39.772;2.718;2023-12-07T07:06:00;101757.28;;;5.34;100.00
51460;BME280;37534;39.772;2.718;2023-12-07T07:08:26;101767.63;;;5.43;100.00
51460;BME280;37534;39.772;2.718;2023-12-07T07:10:51;101781.59;;;5.70;100.00
51460;BME280;37534;39.772;2.718;2023-12-07T07:13:17;101789.22;;;5.65;100.00
51460;BME280;37534;39.772;2.718;2023-12-07T07:15:44;101776.44;;;5.65;100.00
51460;BME280;37534;39.772;2.718;2023-12-07T07:18:10;101766.09;;;5.56;100.00
51460;BME280;37534;39.772;2.718;2023-12-07T07:20:36;101768.72;;;5.64;100.00
51460;BME280;37534;39.772;2.718;2023-12-07T07:23:01;101773.03;;;5.68;100.00
51460;BME280;37534;39.772;2.718;2023-12-07T07:25:27;101761.22;;;5.79;100.00
51460;BME280;37534;39.772;2.718;2023-12-07T07:27:52;101763.84;;;5.87;100.00
51460;BME280;37534;39.772;2.718;2023-12-07T07:30:20;101768.13;;;5.89;100.00
51460;BME280;37534;39.772;2.718;2023-12-07T07:32:45;101757.91;;;5.89;100.00
51460;BME280;37534;39.772;2.718;2023-12-07T07:35:11;101728.97;;;5.97;100.00
51460;BME280;37534;39.772;2.718;2023-12-07T07:37:40;101736.66;;;5.98;100.00
51460;BME280;37534;39.772;2.718;2023-12-07T07:40:09;101737.56;;;6.02;100.00
51460;BME280;37534;39.772;2.718;2023-12-07T07:42:38;101725.69;;;6.12;100.00
51460;BME280;37534;39.772;2.718;2023-12-07T07:45:06;101730.81;;;6.10;100.00
51460;BME280;37534;39.772;2.718;2023-12-07T07:47:32;101711.06;;;6.00;100.00
51460;BME280;37534;39.772;2.718;2023-12-07T07:49:58;101723.88;;;6.00;100.00
51460;BME280;37534;39.772;2.718;2023-12-07T07:52:24;101736.66;;;5.98;100.00
51460;BME280;37534;39.772;2.718;2023-12-07T07:54:50;101766.69;;;6.12;100.00
51460;BME280;37534;39.772;2.718;2023-12-07T07:57:16;101744.50;;;6.12;100.00
51460;BME280;37534;39.772;2.718;2023-12-07T07:59:41;101722.31;;;6.17;100.00
51460;BME280;37534;39.772;2.718;2023-12-07T08:02:07;101759.19;;;6.33;100.00
51460;BME280;37534;39.772;2.718;2023-12-07T08:04:32;101752.34;;;6.34;100.00
51460;BME280;37534;39.772;2.718;2023-12-07T08:06:58;101741.94;;;6.14;100.00
51460;BME280;37534;39.772;2.718;2023-12-07T08:09:24;101739.34;;;6.11;100.00
51460;BME280;37534;39.772;2.718;2023-12-07T08:11:50;101736.03;;;6.22;100.00
51460;BME280;37534;39.772;2.718;2023-12-07T08:14:16;101778.06;;;6.40;100.00
51460;BME280;37534;39.772;2.718;2023-12-07T08:16:44;101764.44;;;6.47;100.00
51460;BME280;37534;39.772;2.718;2023-12-07T08:19:12;101749.75;;;6.31;100.00
51460;BME280;37534;39.772;2.718;2023-12-07T08:21:37;101721.38;;;6.09;100.00
51460;BME280;37534;39.772;2.718;2023-12-07T08:24:04;101745.50;;;6.31;100.00
51460;BME280;37534;39.772;2.718;2023-12-07T08:26:31;101753.31;;;6.45;100.00
51460;BME280;37534;39.772;2.718;2023-12-07T08:28:57;101758.38;;;6.37;100.00
51460;BME280;37534;39.772;2.718;2023-12-07T08:31:23;101767.03;;;6.53;100.00
51460;BME280;37534;39.772;2.718;2023-12-07T08:33:50;101733.66;;;6.44;100.00
51460;BME280;37534;39.772;2.718;2023-12-07T08:36:16;101772.22;;;6.62;100.00
51460;BME280;37534;39.772;2.718;2023-12-07T08:38:42;101783.31;;;6.58;100.00
51460;BME280;37534;39.772;2.718;2023-12-07T08:41:09;101788.56;;;6.74;100.00
51460;BME280;37534;39.772;2.718;2023-12-07T08:43:56;101760.22;;;6.55;100.00
51460;BME280;37534;39.772;2.718;2023-12-07T08:46:53;101786.03;;;6.78;100.00
51460;BME280;37534;39.772;2.718;2023-12-07T08:49:28;101793.72;;;6.75;100.00
51460;BME280;37534;39.772;2.718;2023-12-07T08:52:26;101751.63;;;6.50;100.00
51460;BME280;37534;39.772;2.718;2023-12-07T08:54:56;101764.63;;;6.75;100.00
51460;BME280;37534;39.772;2.718;2023-12-07T08:57:25;101765.56;;;6.89;100.00
51460;BME280;37534;39.772;2.718;2023-12-07T09:00:02;101743.50;;;7.22;100.00
51460;BME280;37534;39.772;2.718;2023-12-07T09:03:12;101774.31;;;9.68;100.00
51460;BME280;37534;39.772;2.718;2023-12-07T09:05:57;101777.84;;;12.17;100.00
51460;BME280;37534;39.772;2.718;2023-12-07T09:08:23;101795.94;;;14.73;100.00
51460;BME280;37534;39.772;2.718;2023-12-07T09:10:49;101775.69;;;16.83;100.00
51460;BME280;37534;39.772;2.718;2023-12-07T09:13:18;101775.81;;;18.80;96.33
51460;BME280;37534;39.772;2.718;2023-12-07T09:15:53;101783.16;;;20.42;76.25
51460;BME280;37534;39.772;2.718;2023-12-07T09:18:22;101776.28;;;21.73;65.63
51460;BME280;37534;39.772;2.718;2023-12-07T09:20:48;101808.09;;;23.18;57.13
51460;BME280;37534;39.772;2.718;2023-12-07T09:23:15;101789.31;;;22.81;52.18
51460;BME280;37534;39.772;2.718;2023-12-07T09:25:41;101793.84;;;23.22;52.73
51460;BME280;37534;39.772;2.718;2023-12-07T09:28:07;101779.94;;;24.16;52.29
51460;BME280;37534;39.772;2.718;2023-12-07T09:30:34;101779.03;;;25.07;50.19
51460;BME280;37534;39.772;2.718;2023-12-07T09:33:00;101778.78;;;25.84;47.79
51460;BME280;37534;39.772;2.718;2023-12-07T09:35:29;101783.66;;;26.95;46.00
51460;BME280;37534;39.772;2.718;2023-12-07T09:38:00;101771.56;;;27.80;43.68
51460;BME280;37534;39.772;2.718;2023-12-07T09:40:26;101783.78;;;28.67;42.16
51460;BME280;37534;39.772;2.718;2023-12-07T09:42:53;101766.19;;;29.06;38.92
51460;BME280;37534;39.772;2.718;2023-12-07T09:45:26;101766.47;;;29.03;40.14
51460;BME280;37534;39.772;2.718;2023-12-07T09:47:54;101760.94;;;28.12;39.04
51460;BME280;37534;39.772;2.718;2023-12-07T09:50:22;101783.97;;;28.12;40.57
51460;BME280;37534;39.772;2.718;2023-12-07T09:52:52;101772.75;;;29.12;39.82
51460;BME280;37534;39.772;2.718;2023-12-07T09:55:19;101801.97;;;29.52;37.38
51460;BME280;37534;39.772;2.718;2023-12-07T09:57:46;101767.00;;;29.67;37.99
51460;BME280;37534;39.772;2.718;2023-12-07T10:00:15;101755.69;;;30.61;37.01
51460;BME280;37534;39.772;2.718;2023-12-07T10:02:42;101753.50;;;31.12;36.61
51460;BME280;37534;39.772;2.718;2023-12-07T10:05:12;101780.03;;;31.77;35.10
51460;BME280;37534;39.772;2.718;2023-12-07T10:07:49;101753.03;;;32.24;34.87
51460;BME280;37534;39.772;2.718;2023-12-07T10:10:16;101759.34;;;32.49;33.67
51460;BME280;37534;39.772;2.718;2023-12-07T10:12:52;101775.00;;;33.05;31.67
51460;BME280;37534;39.772;2.718;2023-12-07T10:15:19;101772.88;;;33.17;33.38
51460;BME280;37534;39.772;2.718;2023-12-07T10:17:52;101759.91;;;33.46;32.65
51460;BME280;37534;39.772;2.718;2023-12-07T10:20:19;101767.59;;;33.49;32.36
51460;BME280;37534;39.772;2.718;2023-12-07T10:25:30;101758.91;;;33.47;30.86
51460;BME280;37534;39.772;2.718;2023-12-07T10:27:56;101751.84;;;33.30;30.63
51460;BME280;37534;39.772;2.718;2023-12-07T10:30:22;101760.53;;;33.24;30.36
51460;BME280;37534;39.772;2.718;2023-12-07T10:32:51;101747.06;;;33.75;30.96
51460;BME280;37534;39.772;2.718;2023-12-07T10:35:18;101741.53;;;33.60;31.27
51460;BME280;37534;39.772;2.718;2023-12-07T10:37:44;101744.13;;;34.34;29.54
51460;BME280;37534;39.772;2.718;2023-12-07T10:40:10;101734.44;;;34.16;28.69
51460;BME280;37534;39.772;2.718;2023-12-07T10:42:36;101734.00;;;33.88;28.88
51460;BME280;37534;39.772;2.718;2023-12-07T10:45:04;101727.06;;;32.61;29.64
51460;BME280;37534;39.772;2.718;2023-12-07T10:47:36;101731.81;;;31.42;31.83
51460;BME280;37534;39.772;2.718;2023-12-07T10:50:05;101710.47;;;29.94;33.84
51460;BME280;37534;39.772;2.718;2023-12-07T10:52:47;101708.66;;;30.79;33.21
51460;BME280;37534;39.772;2.718;2023-12-07T10:55:16;101696.44;;;30.11;33.65
51460;BME280;37534;39.772;2.718;2023-12-07T10:57:46;101690.56;;;30.08;34.72
51460;BME280;37534;39.772;2.718;2023-12-07T11:00:12;101676.84;;;29.93;34.49
51460;BME280;37534;39.772;2.718;2023-12-07T11:02:39;101665.72;;;29.80;34.95
51460;BME280;37534;39.772;2.718;2023-12-07T11:05:08;101644.84;;;29.55;34.42
51460;BME280;37534;39.772;2.718;2023-12-07T11:07:52;101646.41;;;27.44;38.39
51460;BME280;37534;39.772;2.718;2023-12-07T11:10:25;101649.53;;;28.12;37.31
51460;BME280;37534;39.772;2.718;2023-12-07T11:13:44;101631.91;;;28.42;36.66
51460;BME280;37534;39.772;2.718;2023-12-07T11:15:47;101630.03;;;28.54;37.19
51460;BME280;37534;39.772;2.718;2023-12-07T11:18:13;101612.47;;;28.01;37.77
51460;BME280;37534;39.772;2.718;2023-12-07T11:20:44;101608.16;;;25.80;41.13
51460;BME280;37534;39.772;2.718;2023-12-07T11:23:11;101612.78;;;26.46;40.60
51460;BME280;37534;39.772;2.718;2023-12-07T11:25:37;101605.56;;;26.70;40.43
51460;BME280;37534;39.772;2.718;2023-12-07T11:28:04;101605.13;;;28.45;37.95
51460;BME280;37534;39.772;2.718;2023-12-07T11:30:32;101601.91;;;29.41;36.16
51460;BME280;37534;39.772;2.718;2023-12-07T11:32:59;101608.84;;;29.61;35.90
51460;BME280;37534;39.772;2.718;2023-12-07T11:35:25;101595.22;;;30.31;35.69
51460;BME280;37534;39.772;2.718;2023-12-07T11:38:04;101599.31;;;31.87;33.77
51460;BME280;37534;39.772;2.718;2023-12-07T11:40:34;101606.00;;;31.03;34.21
51460;BME280;37534;39.772;2.718;2023-12-07T11:43:00;101594.69;;;29.70;35.36
51460;BME280;37534;39.772;2.718;2023-12-07T11:45:38;101598.03;;;29.15;36.18
51460;BME280;37534;39.772;2.718;2023-12-07T11:48:14;101595.25;;;27.32;39.51
51460;BME280;37534;39.772;2.718;2023-12-07T11:51:07;101583.00;;;28.35;38.19
51460;BME280;37534;39.772;2.718;2023-12-07T11:53:37;101554.75;;;29.13;37.09
51460;BME280;37534;39.772;2.718;2023-12-07T11:56:05;101580.03;;;30.41;35.11
51460;BME280;37534;39.772;2.718;2023-12-07T11:58:32;101572.06;;;30.13;34.74
51460;BME280;37534;39.772;2.718;2023-12-07T12:00:59;101543.28;;;29.99;35.17
51460;BME280;37534;39.772;2.718;2023-12-07T12:03:29;101557.88;;;28.39;36.87
51460;BME280;37534;39.772;2.718;2023-12-07T12:05:57;101554.63;;;28.66;37.48
51460;BME280;37534;39.772;2.718;2023-12-07T12:08:23;101553.91;;;29.99;35.00
51460;BME280;37534;39.772;2.718;2023-12-07T12:10:50;101532.72;;;30.07;34.25
51460;BME280;37534;39.772;2.718;2023-12-07T12:13:17;101546.53;;;29.16;35.58
51460;BME280;37534;39.772;2.718;2023-12-07T12:15:44;101554.75;;;27.62;37.49
51460;BME280;37534;39.772;2.718;2023-12-07T12:18:11;101555.72;;;28.13;37.21
51460;BME280;37534;39.772;2.718;2023-12-07T12:20:39;101554.31;;;28.59;36.85
51460;BME280;37534;39.772;2.718;2023-12-07T12:23:05;101552.59;;;27.98;37.31
51460;BME280;37534;39.772;2.718;2023-12-07T12:25:31;101526.59;;;27.71;37.66
51460;BME280;37534;39.772;2.718;2023-12-07T12:28:04;101551.44;;;27.70;38.07
51460;BME280;37534;39.772;2.718;2023-12-07T12:30:30;101548.25;;;27.45;38.14
51460;BME280;37534;39.772;2.718;2023-12-07T12:32:57;101540.19;;;27.57;37.78
51460;BME280;37534;39.772;2.718;2023-12-07T12:35:23;101530.59;;;27.56;37.71
51460;BME280;37534;39.772;2.718;2023-12-07T12:37:49;101514.72;;;27.02;38.45
51460;BME280;37534;39.772;2.718;2023-12-07T12:40:17;101509.59;;;26.89;38.90
51460;BME280;37534;39.772;2.718;2023-12-07T12:42:51;101519.78;;;27.47;38.70
51460;BME280;37534;39.772;2.718;2023-12-07T12:45:17;101508.75;;;27.73;37.87
51460;BME280;37534;39.772;2.718;2023-12-07T12:47:47;101508.03;;;28.52;36.73
51460;BME280;37534;39.772;2.718;2023-12-07T12:50:33;101486.66;;;29.02;36.55
51460;BME280;37534;39.772;2.718;2023-12-07T12:52:59;101489.88;;;29.35;36.11
51460;BME280;37534;39.772;2.718;2023-12-07T12:55:26;101486.06;;;29.38;34.96
51460;BME280;37534;39.772;2.718;2023-12-07T12:57:51;101484.47;;;29.17;36.04